Time;durP1;ratioP1;P1;durP2;ratioP2;P2;SDS_P1;SDS_P2;PMS_P1;PMS_P2;Temp;Humidity;BMP_temperature;BMP_pressure;BME280_temperature;BME280_humidity;BME280_pressure;Samples;Min_cycle;Max_cycle;Signal;HPM_P1;HPM_P2
2023/11/23 00:00:31;;;;;;;13.10;6.60;;;8.40;99.90;;;;;;6282405;28;20045;-91
2023/11/23 00:03:33;;;;;;;15.43;6.80;;;8.50;99.90;;;;;;6250095;28;20064;-92
2023/11/23 00:06:35;;;;;;;13.07;6.97;;;8.50;99.90;;;;;;6266706;28;20057;-91
2023/11/23 00:09:37;;;;;;;14.77;6.43;;;8.40;99.90;;;;;;6240146;28;20515;-91
2023/11/23 00:12:40;;;;;;;14.98;7.38;;;8.40;99.90;;;;;;6260103;28;20080;-90
2023/11/23 00:15:42;;;;;;;15.25;7.03;;;8.30;99.90;;;;;;6279901;28;20059;-90
2023/11/23 00:18:44;;;;;;;12.95;6.55;;;8.30;99.90;;;;;;6241105;28;20050;-91
2023/11/23 00:21:47;;;;;;;14.65;7.25;;;8.30;99.90;;;;;;6257957;28;20132;-92
2023/11/23 00:24:48;;;;;;;14.85;6.85;;;8.20;99.90;;;;;;6270645;28;20049;-93
2023/11/23 00:27:50;;;;;;;13.68;6.70;;;8.20;99.90;;;;;;6263795;28;20057;-92
2023/11/23 00:30:53;;;;;;;12.88;6.85;;;8.10;99.90;;;;;;6256781;28;20057;-93
2023/11/23 00:33:54;;;;;;;16.50;7.25;;;8.10;99.90;;;;;;6286427;28;20420;-93
2023/11/23 00:36:56;;;;;;;16.13;6.75;;;8.10;99.90;;;;;;6260380;28;20072;-92
2023/11/23 00:39:58;;;;;;;15.63;7.30;;;8.20;99.90;;;;;;6278482;28;20103;-93
2023/11/23 00:42:59;;;;;;;13.43;6.30;;;8.10;99.90;;;;;;6237439;28;20064;-93
2023/11/23 00:46:04;;;;;;;16.63;7.18;;;8.00;99.90;;;;;;6263527;28;20049;-93
2023/11/23 00:49:08;;;;;;;16.42;7.03;;;8.00;99.90;;;;;;6261959;28;20515;-92
2023/11/23 00:52:09;;;;;;;13.05;6.85;;;7.90;99.90;;;;;;6239870;28;20050;-92
2023/11/23 00:55:11;;;;;;;15.30;7.25;;;7.90;99.90;;;;;;6278616;28;20045;-90
2023/11/23 00:58:13;;;;;;;12.27;5.93;;;7.80;99.90;;;;;;6235792;28;20053;-91
2023/11/23 01:01:15;;;;;;;13.38;7.00;;;7.70;99.90;;;;;;6251434;28;20167;-91
2023/11/23 01:04:17;;;;;;;14.13;6.80;;;7.80;99.90;;;;;;6226282;28;20060;-92
2023/11/23 01:07:19;;;;;;;15.45;6.85;;;7.70;99.90;;;;;;6277134;28;20064;-93
2023/11/23 01:10:21;;;;;;;13.32;6.30;;;7.70;99.90;;;;;;6235763;28;20057;-92
2023/11/23 01:13:22;;;;;;;14.15;6.70;;;7.80;99.90;;;;;;6280219;28;20057;-93
2023/11/23 01:16:25;;;;;;;13.75;6.85;;;7.80;99.90;;;;;;6231040;28;20060;-93
2023/11/23 01:19:27;;;;;;;16.02;7.03;;;7.80;99.90;;;;;;6227223;28;20161;-93
2023/11/23 01:22:30;;;;;;;12.90;6.97;;;7.70;99.90;;;;;;6241384;28;20068;-93
2023/11/23 01:25:32;;;;;;;14.77;7.07;;;7.70;99.90;;;;;;6258971;28;20408;-92
2023/11/23 01:28:34;;;;;;;14.52;7.20;;;7.70;99.90;;;;;;6237810;28;20048;-93
2023/11/23 01:31:35;;;;;;;14.32;7.00;;;7.90;99.90;;;;;;6257438;28;20054;-91
2023/11/23 01:34:37;;;;;;;13.82;7.68;;;7.80;99.90;;;;;;6227013;28;20057;-93
2023/11/23 01:37:38;;;;;;;13.30;6.80;;;7.80;99.90;;;;;;6257911;28;20523;-91
2023/11/23 01:40:40;;;;;;;15.10;6.95;;;7.80;99.90;;;;;;6233984;28;20084;-91
2023/11/23 01:43:42;;;;;;;14.60;7.22;;;7.90;99.90;;;;;;6251802;28;20049;-87
2023/11/23 01:46:44;;;;;;;14.85;7.00;;;7.80;99.90;;;;;;6253215;28;20497;-91
2023/11/23 01:49:45;;;;;;;12.85;7.22;;;7.70;99.90;;;;;;6251611;28;20421;-91
2023/11/23 01:52:47;;;;;;;15.65;7.45;;;7.70;99.90;;;;;;6274224;28;20102;-90
2023/11/23 01:55:49;;;;;;;17.02;7.20;;;7.70;99.90;;;;;;6233685;28;20045;-93
2023/11/23 01:58:50;;;;;;;14.98;7.75;;;7.70;99.90;;;;;;6267519;28;20087;-93
2023/11/23 02:01:53;;;;;;;13.82;7.28;;;7.70;99.90;;;;;;6234122;28;20053;-93
2023/11/23 02:04:55;;;;;;;16.77;7.35;;;7.70;99.90;;;;;;6276433;28;20064;-92
2023/11/23 02:07:57;;;;;;;16.42;7.55;;;7.70;99.90;;;;;;6233856;28;20124;-91
2023/11/23 02:10:58;;;;;;;14.35;6.72;;;7.70;99.90;;;;;;6274817;28;20053;-92
2023/11/23 02:14:00;;;;;;;16.63;7.32;;;7.60;99.90;;;;;;6255114;28;20055;-91
2023/11/23 02:17:02;;;;;;;15.93;7.13;;;7.80;99.90;;;;;;6275118;28;20060;-90
2023/11/23 02:20:08;;;;;;;13.77;6.80;;;7.70;99.90;;;;;;6233646;28;20582;-89
2023/11/23 02:23:10;;;;;;;13.38;6.30;;;7.70;99.90;;;;;;6249949;28;20058;-91
2023/11/23 02:26:12;;;;;;;13.48;6.93;;;7.70;99.90;;;;;;6257025;28;20059;-91
2023/11/23 02:29:14;;;;;;;16.63;6.82;;;7.70;99.90;;;;;;6256337;28;20049;-92
2023/11/23 02:32:17;;;;;;;14.45;6.88;;;7.70;99.90;;;;;;6234119;28;20063;-92
2023/11/23 02:35:19;;;;;;;14.35;6.72;;;7.60;99.90;;;;;;6275680;28;20109;-92
2023/11/23 02:38:21;;;;;;;13.02;7.03;;;7.60;99.90;;;;;;6234366;28;20049;-93
2023/11/23 02:41:23;;;;;;;14.13;6.10;;;7.70;99.90;;;;;;6248793;28;20058;-92
2023/11/23 02:44:24;;;;;;;11.20;6.03;;;7.70;99.90;;;;;;6264966;28;20045;-90
2023/11/23 02:47:26;;;;;;;12.07;6.22;;;7.80;99.90;;;;;;6275525;28;20068;-92
2023/11/23 02:50:27;;;;;;;14.50;5.90;;;7.80;99.90;;;;;;6257224;28;20049;-92
2023/11/23 02:53:42;;;;;;;12.57;6.03;;;7.90;99.90;;;;;;6280277;28;20049;-91
2023/11/23 02:56:44;;;;;;;15.73;6.60;;;7.80;99.90;;;;;;6250083;28;20048;-92
2023/11/23 02:59:46;;;;;;;13.75;6.40;;;7.80;99.90;;;;;;6267602;28;20056;-93
2023/11/23 03:02:48;;;;;;;11.27;5.93;;;7.80;99.90;;;;;;6238105;28;20064;-90
2023/11/23 03:05:49;;;;;;;13.40;5.72;;;7.90;99.90;;;;;;6245128;28;20060;-90
2023/11/23 03:08:51;;;;;;;11.40;5.97;;;7.80;99.90;;;;;;6274669;28;20055;-90
2023/11/23 03:11:53;;;;;;;11.15;5.47;;;7.70;99.90;;;;;;6232727;28;20053;-91
2023/11/23 03:14:55;;;;;;;11.82;5.15;;;7.70;99.90;;;;;;6256513;28;20046;-91
2023/11/23 03:17:57;;;;;;;13.32;5.40;;;7.70;99.90;;;;;;6256557;28;20187;-91
2023/11/23 03:20:59;;;;;;;16.15;6.10;;;7.70;99.90;;;;;;6250127;28;20056;-90
2023/11/23 03:24:01;;;;;;;15.32;5.80;;;7.80;99.90;;;;;;6273605;28;20183;-91
2023/11/23 03:27:02;;;;;;;10.50;5.30;;;7.70;99.90;;;;;;6248680;28;20049;-91
2023/11/23 03:30:05;;;;;;;11.68;5.50;;;7.70;99.90;;;;;;6239034;28;20092;-91
2023/11/23 03:33:07;;;;;;;15.60;4.82;;;7.70;99.90;;;;;;6247931;28;20068;-91
2023/11/23 03:36:09;;;;;;;10.52;5.00;;;7.70;99.90;;;;;;6256524;28;20079;-92
2023/11/23 03:39:10;;;;;;;10.95;4.57;;;7.70;99.90;;;;;;6231818;28;20057;-92
2023/11/23 03:42:13;;;;;;;9.10;4.55;;;7.70;99.90;;;;;;6247948;28;20060;-92
2023/11/23 03:45:15;;;;;;;8.68;4.22;;;7.70;99.90;;;;;;6257216;28;20056;-91
2023/11/23 03:48:17;;;;;;;8.73;4.43;;;7.60;99.90;;;;;;6233984;28;20123;-92
2023/11/23 03:51:18;;;;;;;11.00;4.72;;;7.60;99.90;;;;;;6255957;28;20053;-92
2023/11/23 03:54:20;;;;;;;9.77;4.90;;;7.60;99.90;;;;;;6234091;28;20095;-91
2023/11/23 03:57:22;;;;;;;9.80;4.70;;;7.70;99.90;;;;;;6267052;28;20060;-93
2023/11/23 04:00:24;;;;;;;9.57;4.43;;;7.80;99.90;;;;;;6238850;28;20073;-92
2023/11/23 04:03:25;;;;;;;8.43;4.32;;;7.90;99.90;;;;;;6278554;28;20049;-92
2023/11/23 04:06:27;;;;;;;8.98;4.35;;;7.90;99.90;;;;;;6238104;28;20046;-92
2023/11/23 04:09:29;;;;;;;7.40;3.83;;;8.10;99.90;;;;;;6255648;28;20099;-92
2023/11/23 04:12:30;;;;;;;11.60;4.28;;;8.20;99.90;;;;;;6261332;28;20204;-93
2023/11/23 04:15:32;;;;;;;6.28;3.42;;;8.40;99.90;;;;;;6234875;28;20045;-93
2023/11/23 04:18:34;;;;;;;9.40;4.18;;;8.50;99.90;;;;;;6260564;28;20060;-92
2023/11/23 04:21:35;;;;;;;8.95;3.60;;;8.50;99.90;;;;;;6253961;28;20045;-92
2023/11/23 04:24:37;;;;;;;10.18;3.80;;;8.50;99.90;;;;;;6259553;28;20056;-92
2023/11/23 04:27:41;;;;;;;8.65;3.20;;;8.60;99.90;;;;;;6236251;28;20045;-91
2023/11/23 04:30:42;;;;;;;7.57;3.20;;;8.70;99.90;;;;;;6257197;28;20048;-92
2023/11/23 04:33:44;;;;;;;7.63;3.00;;;8.70;99.90;;;;;;6254233;28;20069;-92
2023/11/23 04:36:46;;;;;;;6.47;2.90;;;8.80;99.90;;;;;;6260929;28;20068;-94
2023/11/23 04:39:48;;;;;;;8.82;3.00;;;8.80;99.90;;;;;;6236620;28;20071;-94
2023/11/23 04:42:49;;;;;;;6.32;3.10;;;8.80;99.90;;;;;;6277119;28;20130;-91
2023/11/23 04:45:51;;;;;;;7.47;3.13;;;8.80;99.90;;;;;;6243553;28;20064;-94
2023/11/23 04:48:53;;;;;;;7.78;2.92;;;8.90;99.90;;;;;;6259702;28;20061;-93
2023/11/23 04:51:54;;;;;;;7.18;3.00;;;8.80;99.90;;;;;;6235677;28;20056;-93
2023/11/23 04:54:56;;;;;;;7.68;2.78;;;8.80;99.90;;;;;;6277512;28;20052;-94
2023/11/23 04:57:58;;;;;;;9.40;3.08;;;8.70;99.90;;;;;;6259242;28;20427;-93
2023/11/23 05:01:00;;;;;;;5.90;3.10;;;8.60;99.90;;;;;;6245237;28;20501;-93
2023/11/23 05:04:02;;;;;;;8.35;3.05;;;8.60;99.90;;;;;;6260605;28;20056;-94
2023/11/23 05:07:06;;;;;;;9.70;3.22;;;8.60;99.90;;;;;;6235531;28;20064;-94
2023/11/23 05:10:08;;;;;;;8.68;3.60;;;8.70;99.90;;;;;;6259282;28;20055;-93
2023/11/23 05:13:10;;;;;;;6.40;3.00;;;8.70;99.90;;;;;;6253463;28;20053;-88
2023/11/23 05:16:12;;;;;;;7.13;3.15;;;8.80;99.90;;;;;;6258691;28;20052;-94
2023/11/23 05:19:14;;;;;;;8.85;3.28;;;8.80;99.90;;;;;;6228898;28;20046;-92
2023/11/23 05:22:31;;;;;;;8.05;3.13;;;8.70;99.90;;;;;;6228198;28;20486;-94
2023/11/23 05:25:33;;;;;;;7.40;3.05;;;8.80;99.90;;;;;;6258182;28;20049;-93
2023/11/23 05:28:35;;;;;;;7.88;3.30;;;8.70;99.90;;;;;;6234398;28;20058;-93
2023/11/23 05:31:36;;;;;;;6.22;2.92;;;8.80;99.90;;;;;;6248164;28;20113;-93
2023/11/23 05:34:38;;;;;;;7.20;2.90;;;8.70;99.90;;;;;;6258409;28;20049;-92
2023/11/23 05:37:40;;;;;;;8.45;2.85;;;8.90;99.90;;;;;;6246524;28;20049;-93
2023/11/23 05:40:41;;;;;;;6.57;3.25;;;9.00;99.90;;;;;;6276210;28;20049;-91
2023/11/23 05:43:43;;;;;;;7.90;3.08;;;9.00;99.90;;;;;;6254798;28;20045;-89
2023/11/23 05:46:47;;;;;;;11.13;3.40;;;8.90;99.90;;;;;;6238152;28;20096;-91
2023/11/23 05:49:49;;;;;;;6.95;3.05;;;8.90;99.90;;;;;;6255959;28;20554;-89
2023/11/23 05:52:51;;;;;;;9.98;3.30;;;9.00;99.90;;;;;;6233145;28;20053;-90
2023/11/23 05:55:53;;;;;;;9.23;3.67;;;9.00;99.90;;;;;;6256649;28;20048;-93
2023/11/23 05:58:54;;;;;;;7.82;3.30;;;9.10;99.90;;;;;;6236773;28;20483;-92
2023/11/23 06:01:56;;;;;;;6.53;3.20;;;9.10;99.90;;;;;;6274223;28;20144;-92
2023/11/23 06:04:58;;;;;;;6.32;3.13;;;9.20;99.90;;;;;;6250993;28;20056;-92
2023/11/23 06:08:00;;;;;;;8.02;3.03;;;9.20;99.90;;;;;;6253182;28;20128;-91
2023/11/23 06:11:02;;;;;;;9.25;3.40;;;9.20;99.90;;;;;;6249985;28;20056;-93
2023/11/23 06:14:04;;;;;;;7.28;3.00;;;9.10;99.90;;;;;;6257730;28;20485;-92
2023/11/23 06:17:14;;;;;;;7.97;3.30;;;9.10;99.90;;;;;;6261619;28;20056;-92
2023/11/23 06:20:16;;;;;;;10.30;3.22;;;9.10;99.90;;;;;;6226672;28;20124;-92
2023/11/23 06:23:18;;;;;;;8.23;3.58;;;9.10;99.90;;;;;;6274380;28;20511;-91
2023/11/23 06:26:20;;;;;;;11.68;3.60;;;9.10;99.90;;;;;;6249872;28;20056;-90
2023/11/23 06:29:22;;;;;;;8.05;3.00;;;9.10;99.90;;;;;;6261553;28;20057;-92
2023/11/23 06:32:24;;;;;;;10.15;3.60;;;9.10;99.90;;;;;;6255512;28;20052;-92
2023/11/23 06:35:25;;;;;;;7.95;3.30;;;9.00;99.90;;;;;;6198246;22;1131309;-85
2023/11/23 06:38:28;;;;;;;9.32;3.30;;;9.00;99.90;;;;;;6231655;28;20441;-84
2023/11/23 06:41:30;;;;;;;7.00;3.50;;;9.10;99.90;;;;;;6220684;28;20082;-86
2023/11/23 06:44:32;;;;;;;9.25;3.28;;;9.10;99.90;;;;;;6217209;28;20584;-86
2023/11/23 06:47:33;;;;;;;10.25;3.42;;;9.10;99.90;;;;;;6219653;28;20078;-85
2023/11/23 06:50:37;;;;;;;12.32;3.90;;;9.00;99.90;;;;;;6218677;28;20049;-86
2023/11/23 06:53:44;;;;;;;10.55;3.80;;;9.00;99.90;;;;;;6218789;28;20053;-84
2023/11/23 06:56:46;;;;;;;8.02;3.33;;;9.00;99.90;;;;;;6210494;28;20065;-85
2023/11/23 06:59:48;;;;;;;8.07;3.88;;;9.00;99.90;;;;;;6216482;28;20409;-84
2023/11/23 07:02:50;;;;;;;8.35;3.40;;;9.10;99.90;;;;;;6219338;28;20064;-84
2023/11/23 07:05:51;;;;;;;11.43;3.40;;;9.00;99.90;;;;;;6218356;28;20270;-85
2023/11/23 07:08:53;;;;;;;8.65;3.33;;;9.10;99.90;;;;;;6218841;28;20092;-84
2023/11/23 07:11:57;;;;;;;10.00;3.83;;;9.00;99.90;;;;;;6219450;28;20054;-84
2023/11/23 07:14:58;;;;;;;8.27;3.13;;;9.10;99.90;;;;;;6217207;28;20494;-85
2023/11/23 07:18:00;;;;;;;8.70;3.15;;;9.10;99.90;;;;;;6219088;28;20058;-84
2023/11/23 07:21:02;;;;;;;9.00;3.70;;;9.20;99.90;;;;;;6220136;28;20698;-85
2023/11/23 07:24:04;;;;;;;10.45;3.30;;;9.20;99.90;;;;;;6219617;28;20064;-84
2023/11/23 07:27:06;;;;;;;8.20;3.45;;;9.20;99.90;;;;;;6218998;28;20060;-84
2023/11/23 07:30:08;;;;;;;10.15;3.63;;;9.40;99.90;;;;;;6217878;28;20053;-85
2023/11/23 07:33:10;;;;;;;11.23;3.78;;;9.40;99.90;;;;;;6220981;28;20531;-85
2023/11/23 07:36:12;;;;;;;11.23;3.60;;;9.50;99.90;;;;;;6217586;28;20077;-85
2023/11/23 07:39:16;;;;;;;9.40;3.80;;;9.50;99.90;;;;;;6222354;28;20049;-85
2023/11/23 07:42:18;;;;;;;8.10;3.75;;;9.40;99.90;;;;;;6225241;28;20433;-85
2023/11/23 07:45:21;;;;;;;8.82;3.63;;;9.50;99.90;;;;;;6223023;28;20061;-85
2023/11/23 07:48:22;;;;;;;7.40;3.47;;;9.60;99.90;;;;;;6225130;28;20053;-86
2023/11/23 07:51:24;;;;;;;8.18;3.55;;;9.50;99.90;;;;;;6226147;28;20121;-84
2023/11/23 07:54:26;;;;;;;10.43;3.88;;;9.50;99.90;;;;;;6229308;28;20050;-84
2023/11/23 07:57:27;;;;;;;7.60;3.53;;;9.50;99.90;;;;;;6229001;28;20057;-86
2023/11/23 08:00:29;;;;;;;6.45;3.25;;;9.60;99.90;;;;;;6236525;28;20128;-85
2023/11/23 08:03:31;;;;;;;6.00;3.30;;;9.60;99.90;;;;;;6249589;28;20058;-82
2023/11/23 08:06:33;;;;;;;9.07;3.55;;;9.60;99.90;;;;;;6249922;28;20057;-85
2023/11/23 08:09:35;;;;;;;7.05;3.45;;;9.60;99.90;;;;;;6251995;28;20112;-84
2023/11/23 08:12:36;;;;;;;8.15;3.35;;;9.70;99.90;;;;;;6251128;28;20141;-84
2023/11/23 08:15:39;;;;;;;7.90;2.97;;;9.70;99.90;;;;;;6241276;28;20088;-84
2023/11/23 08:18:42;;;;;;;7.78;3.38;;;9.80;99.90;;;;;;6228492;28;20064;-85
2023/11/23 08:21:51;;;;;;;6.70;3.20;;;9.80;99.90;;;;;;6200435;28;20078;-81
2023/11/23 08:24:52;;;;;;;5.90;2.78;;;9.90;99.90;;;;;;6223510;28;20223;-83
2023/11/23 08:27:54;;;;;;;10.40;2.90;;;10.00;99.90;;;;;;6222519;28;20116;-83
2023/11/23 08:30:56;;;;;;;7.30;3.35;;;10.00;99.90;;;;;;6219775;28;20826;-83
2023/11/23 08:33:58;;;;;;;7.50;2.90;;;10.10;99.90;;;;;;6219940;28;20137;-82
2023/11/23 08:37:00;;;;;;;6.72;2.80;;;10.10;99.90;;;;;;6239232;28;20076;-84
2023/11/23 08:40:03;;;;;;;5.38;2.58;;;10.30;99.90;;;;;;6239061;28;20054;-82
2023/11/23 08:43:06;;;;;;;7.70;2.83;;;10.30;99.90;;;;;;6221643;28;20049;-82
2023/11/23 08:46:07;;;;;;;5.97;2.83;;;10.40;99.90;;;;;;6224225;28;20062;-82
2023/11/23 08:49:13;;;;;;;7.07;3.13;;;10.50;99.90;;;;;;6198301;28;20569;-81
2023/11/23 08:52:15;;;;;;;5.65;2.97;;;10.50;99.90;;;;;;6219395;28;20074;-89
2023/11/23 08:55:19;;;;;;;5.57;2.72;;;10.60;99.90;;;;;;6221564;28;20284;-80
2023/11/23 08:58:21;;;;;;;7.50;3.13;;;10.60;99.90;;;;;;6200276;28;20053;-90
2023/11/23 09:01:23;;;;;;;10.77;3.35;;;10.70;99.90;;;;;;6223939;28;20058;-86
2023/11/23 09:04:25;;;;;;;8.88;3.10;;;10.70;99.90;;;;;;6203563;28;20053;-86
2023/11/23 09:07:40;;;;;;;8.68;3.13;;;10.80;99.90;;;;;;6217931;28;20054;-86
2023/11/23 09:10:55;;;;;;;;;;;;;;;;;;;;;
2023/11/23 09:14:18;;;;;;;6.35;2.50;;;10.90;99.90;;;;;;6216778;28;20050;-84
2023/11/23 09:17:19;;;;;;;5.22;2.67;;;11.00;99.90;;;;;;6221621;28;20099;-82
2023/11/23 09:20:21;;;;;;;4.35;2.58;;;11.50;99.90;;;;;;6221351;28;20087;-85
2023/11/23 09:23:23;;;;;;;4.10;2.20;;;12.10;99.90;;;;;;6219898;28;20057;-84
2023/11/23 09:26:25;;;;;;;4.38;2.13;;;12.60;99.90;;;;;;6221313;28;20512;-83
2023/11/23 09:29:26;;;;;;;5.55;2.20;;;13.20;99.90;;;;;;6206749;28;20562;-83
2023/11/23 09:32:30;;;;;;;6.75;2.20;;;13.70;99.90;;;;;;6219168;28;20061;-85
2023/11/23 09:35:32;;;;;;;4.68;2.30;;;13.70;99.90;;;;;;6196236;28;20058;-94
2023/11/23 09:38:36;;;;;;;3.78;2.30;;;13.30;99.90;;;;;;6198862;28;20152;-85
2023/11/23 09:41:39;;;;;;;4.40;2.28;;;13.00;99.90;;;;;;6204149;28;20064;-86
2023/11/23 09:44:43;;;;;;;5.50;2.30;;;12.70;99.90;;;;;;6218039;28;20223;-87
2023/11/23 09:47:45;;;;;;;4.85;2.17;;;12.50;99.90;;;;;;6196652;28;20054;-84
2023/11/23 09:50:47;;;;;;;6.63;2.70;;;12.40;99.90;;;;;;6217690;28;20046;-85
2023/11/23 09:53:49;;;;;;;5.15;2.30;;;12.20;99.90;;;;;;6220298;28;20060;-84
2023/11/23 09:56:50;;;;;;;5.07;2.05;;;12.10;99.90;;;;;;6218991;28;20211;-85
2023/11/23 09:59:52;;;;;;;6.28;2.80;;;12.10;99.90;;;;;;6219208;28;20174;-90
2023/11/23 10:02:57;;;;;;;7.13;2.80;;;12.10;99.90;;;;;;6220054;28;20054;-85
2023/11/23 10:05:59;;;;;;;5.40;2.08;;;12.10;99.90;;;;;;6209593;28;20058;-85
2023/11/23 10:09:01;;;;;;;4.30;2.25;;;12.10;99.90;;;;;;6222494;28;20155;-85
2023/11/23 10:12:02;;;;;;;5.18;2.20;;;12.10;99.90;;;;;;6220332;28;20099;-84
2023/11/23 10:15:04;;;;;;;5.43;2.83;;;12.20;99.90;;;;;;6218876;28;20495;-85
2023/11/23 10:18:08;;;;;;;5.63;2.30;;;12.20;99.90;;;;;;6212170;28;20046;-85
2023/11/23 10:21:11;;;;;;;5.65;2.10;;;12.20;99.90;;;;;;6207257;28;20177;-87
2023/11/23 10:24:16;;;;;;;4.93;2.28;;;12.20;99.90;;;;;;6211212;28;20054;-86
2023/11/23 10:27:20;;;;;;;7.45;2.70;;;12.20;99.90;;;;;;6264577;22;20061;-87
2023/11/23 10:30:23;;;;;;;5.72;2.10;;;12.10;99.90;;;;;;6259943;28;20049;-88
2023/11/23 10:33:26;;;;;;;4.85;2.03;;;12.10;99.90;;;;;;6228195;28;20057;-90
2023/11/23 10:36:28;;;;;;;4.57;1.88;;;12.00;99.90;;;;;;6228606;28;20053;-90
2023/11/23 10:39:30;;;;;;;5.18;2.05;;;12.00;99.90;;;;;;6230218;28;20061;-88
2023/11/23 10:42:32;;;;;;;5.75;1.75;;;11.90;99.90;;;;;;6247684;28;20104;-93
2023/11/23 10:45:35;;;;;;;4.75;2.10;;;11.80;99.90;;;;;;6210068;28;20742;-90
2023/11/23 10:48:38;;;;;;;7.55;2.20;;;11.80;99.90;;;;;;6247658;28;20053;-88
2023/11/23 10:51:40;;;;;;;5.80;2.63;;;11.90;99.90;;;;;;6246463;28;20103;-88
2023/11/23 10:54:42;;;;;;;5.28;2.17;;;11.80;99.90;;;;;;6247828;28;20089;-89
2023/11/23 10:57:44;;;;;;;6.47;2.25;;;11.80;99.90;;;;;;6244615;28;20056;-89
2023/11/23 11:00:46;;;;;;;5.47;2.22;;;11.80;99.90;;;;;;6241961;28;20531;-88
2023/11/23 11:03:47;;;;;;;6.18;2.40;;;11.80;99.90;;;;;;6245419;28;20053;-88
2023/11/23 11:06:49;;;;;;;7.22;1.90;;;11.90;99.90;;;;;;6228306;28;20541;-88
2023/11/23 11:09:51;;;;;;;4.63;2.10;;;11.80;99.90;;;;;;6227365;28;20081;-89
2023/11/23 11:12:53;;;;;;;4.88;2.10;;;11.90;99.90;;;;;;6226439;28;20162;-88
2023/11/23 11:15:55;;;;;;;5.32;1.83;;;12.00;99.90;;;;;;6248508;28;20046;-88
2023/11/23 11:18:57;;;;;;;3.95;1.65;;;12.10;99.90;;;;;;6208411;28;20057;-88
2023/11/23 11:22:02;;;;;;;4.07;1.50;;;12.40;99.90;;;;;;6240659;28;20402;-89
2023/11/23 11:25:03;;;;;;;3.25;1.33;;;13.10;99.90;;;;;;6225709;28;20045;-88
2023/11/23 11:28:05;;;;;;;4.55;1.30;;;14.00;99.30;;;;;;6231219;28;20049;-90
2023/11/23 11:31:07;;;;;;;5.70;1.70;;;14.50;92.80;;;;;;6229971;28;20049;-89
2023/11/23 11:34:09;;;;;;;4.70;1.55;;;15.00;91.40;;;;;;6226554;28;20115;-90
2023/11/23 11:37:10;;;;;;;4.90;1.50;;;15.60;90.10;;;;;;6249522;28;20520;-89
2023/11/23 11:40:12;;;;;;;4.22;1.52;;;16.10;58.50;;;;;;6232005;28;20053;-90
2023/11/23 11:43:14;;;;;;;4.13;1.60;;;16.40;57.00;;;;;;6232786;28;20042;-92
2023/11/23 11:46:17;;;;;;;5.18;1.63;;;16.40;27.20;;;;;;6238411;28;20049;-87
2023/11/23 11:49:18;;;;;;;4.38;1.73;;;16.30;9.50;;;;;;6228219;28;20089;-88
2023/11/23 11:52:21;;;;;;;3.83;1.58;;;16.30;1.20;;;;;;6265204;28;20052;-88
2023/11/23 11:55:22;;;;;;;3.25;1.58;;;16.10;1.00;;;;;;6235040;28;20655;-90
2023/11/23 11:58:24;;;;;;;4.68;1.55;;;16.10;1.00;;;;;;6228831;28;20544;-88
2023/11/23 12:01:26;;;;;;;4.35;1.80;;;16.60;1.00;;;;;;6232342;28;20134;-91
2023/11/23 12:04:27;;;;;;;3.10;1.77;;;16.20;1.00;;;;;;6207429;28;20141;-91
2023/11/23 12:07:29;;;;;;;4.28;1.90;;;16.60;1.00;;;;;;6251856;28;20053;-90
2023/11/23 12:10:31;;;;;;;4.78;2.15;;;15.80;1.00;;;;;;6251312;28;20582;-90
2023/11/23 12:13:32;;;;;;;6.80;2.10;;;15.70;1.00;;;;;;6210472;28;20509;-92
2023/11/23 12:16:34;;;;;;;7.60;2.13;;;15.60;1.00;;;;;;6256842;28;20065;-82
2023/11/23 12:19:36;;;;;;;4.90;2.00;;;15.50;1.00;;;;;;6222552;28;20054;-84
2023/11/23 12:22:38;;;;;;;4.38;2.22;;;15.60;1.00;;;;;;6248218;28;20166;-84
2023/11/23 12:25:40;;;;;;;4.90;2.15;;;15.20;1.00;;;;;;6244429;28;20515;-84
2023/11/23 12:28:41;;;;;;;7.75;2.25;;;15.60;1.00;;;;;;6246901;28;20064;-84
2023/11/23 12:31:43;;;;;;;4.45;2.17;;;16.10;1.00;;;;;;6247300;28;20050;-91
2023/11/23 12:34:45;;;;;;;8.20;2.65;;;16.00;1.00;;;;;;6231639;28;20126;-89
2023/11/23 12:37:46;;;;;;;8.63;3.08;;;16.20;1.00;;;;;;6248667;28;20386;-89
2023/11/23 12:40:49;;;;;;;6.32;2.70;;;16.10;1.00;;;;;;6247984;28;20056;-90
2023/11/23 12:43:50;;;;;;;5.10;2.40;;;16.30;1.00;;;;;;6243132;28;20053;-90
2023/11/23 12:46:52;;;;;;;5.97;2.42;;;16.00;1.00;;;;;;6247813;28;20057;-86
2023/11/23 12:49:54;;;;;;;4.88;2.47;;;16.10;1.00;;;;;;6246522;28;20563;-89
2023/11/23 12:52:55;;;;;;;5.35;2.47;;;16.40;1.00;;;;;;6223423;28;20049;-87
2023/11/23 12:55:57;;;;;;;5.28;2.53;;;16.50;1.00;;;;;;6246813;28;20587;-87
2023/11/23 12:58:59;;;;;;;6.28;2.30;;;16.70;1.00;;;;;;6242924;28;20056;-86
2023/11/23 13:02:01;;;;;;;5.88;2.63;;;16.80;1.00;;;;;;6230558;28;20076;-81
2023/11/23 13:05:02;;;;;;;6.50;2.50;;;16.80;1.00;;;;;;6248759;28;20050;-87
2023/11/23 13:08:05;;;;;;;9.80;2.35;;;16.80;1.00;;;;;;6230763;28;20049;-87
2023/11/23 13:11:07;;;;;;;4.45;2.15;;;16.70;1.00;;;;;;6248383;28;20050;-86
2023/11/23 13:14:09;;;;;;;5.45;2.40;;;16.70;1.00;;;;;;6243371;28;20053;-87
2023/11/23 13:17:13;;;;;;;8.82;2.33;;;16.70;1.00;;;;;;6246887;28;20061;-84
2023/11/23 13:20:15;;;;;;;6.13;2.50;;;16.70;1.00;;;;;;6246844;28;20507;-86
2023/11/23 13:23:17;;;;;;;4.35;2.30;;;16.40;1.00;;;;;;6247382;28;20087;-86
2023/11/23 13:26:18;;;;;;;9.73;2.60;;;16.60;1.00;;;;;;6228272;28;20068;-86
2023/11/23 13:29:20;;;;;;;5.65;2.40;;;16.70;1.00;;;;;;6228240;28;20049;-85
2023/11/23 13:32:22;;;;;;;6.80;2.47;;;16.60;1.00;;;;;;6246365;28;20084;-85
2023/11/23 13:35:23;;;;;;;7.30;2.47;;;16.60;1.00;;;;;;6254795;28;20041;-86
2023/11/23 13:38:25;;;;;;;6.85;2.50;;;16.60;1.00;;;;;;6245685;28;20050;-89
2023/11/23 13:41:27;;;;;;;5.20;2.50;;;16.50;1.00;;;;;;6228530;28;20068;-86
2023/11/23 13:44:29;;;;;;;6.50;2.42;;;16.50;1.00;;;;;;6221935;28;20503;-85
2023/11/23 13:47:30;;;;;;;8.57;3.13;;;16.70;1.00;;;;;;6227773;28;20118;-83
2023/11/23 13:50:32;;;;;;;9.32;2.53;;;16.50;1.00;;;;;;6244817;28;20523;-86
2023/11/23 13:53:34;;;;;;;6.75;2.80;;;16.40;1.00;;;;;;6226996;28;20064;-83
2023/11/23 13:56:36;;;;;;;5.35;2.63;;;16.20;1.00;;;;;;6235244;28;20146;-92
2023/11/23 13:59:43;;;;;;;6.57;2.85;;;15.90;1.00;;;;;;6233659;28;20064;-91
2023/11/23 14:02:47;;;;;;;5.38;2.50;;;15.30;1.00;;;;;;6237833;28;20056;-95
2023/11/23 14:05:49;;;;;;;6.63;3.03;;;14.90;1.00;;;;;;6254526;28;20061;-89
2023/11/23 14:08:50;;;;;;;6.65;2.60;;;14.50;1.00;;;;;;6207971;28;20127;-95
2023/11/23 14:11:54;;;;;;;9.43;3.08;;;14.30;6.10;;;;;;6252903;28;20107;-94
2023/11/23 14:14:56;;;;;;;7.72;3.10;;;14.10;9.40;;;;;;6255629;28;20057;-92
2023/11/23 14:17:57;;;;;;;7.72;3.40;;;14.00;14.70;;;;;;6252885;28;20053;-90
2023/11/23 14:20:59;;;;;;;8.73;3.65;;;13.80;20.00;;;;;;6228756;28;20080;-89
2023/11/23 14:24:01;;;;;;;6.53;3.42;;;13.80;30.80;;;;;;6246724;28;20069;-91
2023/11/23 14:27:03;;;;;;;7.47;3.55;;;13.70;35.40;;;;;;6229142;28;20073;-88
2023/11/23 14:30:06;;;;;;;7.90;3.70;;;13.60;37.20;;;;;;6229357;28;20054;-89
2023/11/23 14:33:11;;;;;;;6.72;3.42;;;13.50;45.50;;;;;;6229140;28;20564;-90
2023/11/23 14:36:12;;;;;;;9.13;3.80;;;13.60;48.40;;;;;;6253546;28;20053;-92
2023/11/23 14:39:16;;;;;;;7.60;3.30;;;13.50;45.40;;;;;;6231536;28;20064;-91
2023/11/23 14:42:18;;;;;;;5.82;3.13;;;13.50;47.40;;;;;;6233148;28;20058;-92
2023/11/23 14:45:21;;;;;;;9.30;3.75;;;13.40;50.70;;;;;;6227929;28;20053;-90
2023/11/23 14:48:23;;;;;;;8.15;3.85;;;13.40;52.40;;;;;;6228188;28;20060;-90
2023/11/23 14:51:26;;;;;;;7.70;3.47;;;13.30;60.00;;;;;;6247059;28;20053;-91
2023/11/23 14:54:32;;;;;;;7.63;3.20;;;13.30;61.40;;;;;;6219812;28;20427;-90
2023/11/23 14:57:38;;;;;;;6.82;3.10;;;13.30;63.90;;;;;;6221638;28;20390;-91
2023/11/23 15:00:40;;;;;;;7.55;3.10;;;13.20;65.00;;;;;;6225049;28;20049;-90
2023/11/23 15:03:42;;;;;;;9.63;3.15;;;13.10;67.70;;;;;;6246470;28;20052;-91
2023/11/23 15:06:45;;;;;;;8.57;3.28;;;13.10;74.50;;;;;;6229245;28;20057;-90
2023/11/23 15:09:46;;;;;;;9.10;2.90;;;13.00;78.60;;;;;;6230748;28;20073;-89
2023/11/23 15:12:51;;;;;;;10.70;3.35;;;13.00;81.60;;;;;;6254169;28;20469;-89
2023/11/23 15:15:53;;;;;;;9.35;3.88;;;12.90;84.50;;;;;;6246860;28;20091;-92
2023/11/23 15:18:55;;;;;;;13.10;3.67;;;13.00;84.20;;;;;;6234458;28;20052;-90
2023/11/23 15:21:59;;;;;;;7.30;3.13;;;12.90;88.50;;;;;;6233444;28;20169;-91
2023/11/23 15:25:01;;;;;;;8.95;3.22;;;12.90;90.50;;;;;;6238054;28;20053;-92
2023/11/23 15:28:10;;;;;;;7.60;2.83;;;12.90;91.10;;;;;;6235338;28;20050;-86
2023/11/23 15:31:15;;;;;;;8.48;2.65;;;12.80;91.80;;;;;;6245765;28;20076;-91
2023/11/23 15:34:18;;;;;;;5.70;2.70;;;12.70;92.80;;;;;;6226602;28;20045;-88
2023/11/23 15:37:20;;;;;;;8.18;3.00;;;12.60;93.40;;;;;;6248970;28;20084;-90
2023/11/23 15:40:21;;;;;;;8.13;3.00;;;12.60;93.90;;;;;;6228115;28;20057;-92
2023/11/23 15:43:23;;;;;;;9.77;3.03;;;12.50;94.40;;;;;;6229927;28;20123;-90
2023/11/23 15:46:26;;;;;;;8.45;3.22;;;12.50;95.90;;;;;;6230068;28;20053;-90
2023/11/23 15:49:28;;;;;;;7.35;2.85;;;12.40;95.70;;;;;;6205819;28;20054;-88
2023/11/23 15:52:30;;;;;;;7.53;2.90;;;12.40;96.20;;;;;;6262145;28;20045;-88
2023/11/23 15:55:32;;;;;;;6.85;3.10;;;12.30;96.70;;;;;;6230436;28;20101;-90